sensor_id;sensor_type;location;lat;lon;timestamp;temperature;humidity
63802;DHT22;49949;43.060;25.624;2023-04-10T00:01:39;6.80;99.90
63802;DHT22;49949;43.060;25.624;2023-04-10T00:04:05;6.80;99.90
63802;DHT22;49949;43.060;25.624;2023-04-10T00:06:31;6.70;99.90
63802;DHT22;49949;43.060;25.624;2023-04-10T00:08:58;6.70;99.90
63802;DHT22;49949;43.060;25.624;2023-04-10T00:11:24;6.70;99.90
63802;DHT22;49949;43.060;25.624;2023-04-10T00:13:51;6.60;99.90
63802;DHT22;49949;43.060;25.624;2023-04-10T00:16:17;6.60;99.90
63802;DHT22;49949;43.060;25.624;2023-04-10T00:18:42;6.60;99.90
63802;DHT22;49949;43.060;25.624;2023-04-10T00:21:08;6.50;99.90
63802;DHT22;49949;43.060;25.624;2023-04-10T00:23:34;6.50;99.90
63802;DHT22;49949;43.060;25.624;2023-04-10T00:26:00;6.40;99.90
63802;DHT22;49949;43.060;25.624;2023-04-10T00:28:26;6.40;99.90
63802;DHT22;49949;43.060;25.624;2023-04-10T00:30:52;6.40;99.90
63802;DHT22;49949;43.060;25.624;2023-04-10T00:33:17;6.30;99.90
63802;DHT22;49949;43.060;25.624;2023-04-10T00:35:43;6.30;99.90
63802;DHT22;49949;43.060;25.624;2023-04-10T00:38:09;6.30;99.90
63802;DHT22;49949;43.060;25.624;2023-04-10T00:40:35;6.30;99.90
63802;DHT22;49949;43.060;25.624;2023-04-10T00:43:00;6.20;99.90
63802;DHT22;49949;43.060;25.624;2023-04-10T00:45:26;6.10;99.90
63802;DHT22;49949;43.060;25.624;2023-04-10T00:47:53;6.10;99.90
63802;DHT22;49949;43.060;25.624;2023-04-10T00:50:20;6.00;99.90
63802;DHT22;49949;43.060;25.624;2023-04-10T00:52:47;6.00;99.90
63802;DHT22;49949;43.060;25.624;2023-04-10T00:55:13;5.90;99.90
63802;DHT22;49949;43.060;25.624;2023-04-10T00:57:43;5.90;99.90
63802;DHT22;49949;43.060;25.624;2023-04-10T01:00:11;5.90;99.90
63802;DHT22;49949;43.060;25.624;2023-04-10T01:02:37;5.80;99.90
63802;DHT22;49949;43.060;25.624;2023-04-10T01:05:03;5.80;99.90
63802;DHT22;49949;43.060;25.624;2023-04-10T01:10:17;5.70;99.90
63802;DHT22;49949;43.060;25.624;2023-04-10T01:13:14;5.60;99.90
63802;DHT22;49949;43.060;25.624;2023-04-10T01:16:04;5.60;99.90
63802;DHT22;49949;43.060;25.624;2023-04-10T01:18:36;5.60;99.90
63802;DHT22;49949;43.060;25.624;2023-04-10T01:21:05;5.50;99.90
63802;DHT22;49949;43.060;25.624;2023-04-10T01:23:41;5.50;99.90
63802;DHT22;49949;43.060;25.624;2023-04-10T01:26:11;5.40;99.90
63802;DHT22;49949;43.060;25.624;2023-04-10T01:31:45;5.30;99.90
63802;DHT22;49949;43.060;25.624;2023-04-10T01:34:18;5.20;99.90
63802;DHT22;49949;43.060;25.624;2023-04-10T01:37:04;5.20;99.90
63802;DHT22;49949;43.060;25.624;2023-04-10T01:39:35;5.10;99.90
63802;DHT22;49949;43.060;25.624;2023-04-10T01:42:03;5.10;99.90
63802;DHT22;49949;43.060;25.624;2023-04-10T01:44:31;5.00;99.90
63802;DHT22;49949;43.060;25.624;2023-04-10T01:46:57;5.00;99.90
63802;DHT22;49949;43.060;25.624;2023-04-10T01:49:27;4.90;99.90
63802;DHT22;49949;43.060;25.624;2023-04-10T01:51:54;4.90;99.90
63802;DHT22;49949;43.060;25.624;2023-04-10T01:54:27;4.80;99.90
63802;DHT22;49949;43.060;25.624;2023-04-10T01:56:53;4.70;99.90
63802;DHT22;49949;43.060;25.624;2023-04-10T01:59:19;4.60;99.90
63802;DHT22;49949;43.060;25.624;2023-04-10T02:01:45;4.60;99.90
63802;DHT22;49949;43.060;25.624;2023-04-10T02:04:11;4.60;99.90
63802;DHT22;49949;43.060;25.624;2023-04-10T02:06:50;4.50;99.90
63802;DHT22;49949;43.060;25.624;2023-04-10T02:09:36;4.50;99.90
63802;DHT22;49949;43.060;25.624;2023-04-10T02:12:08;4.50;99.90
63802;DHT22;49949;43.060;25.624;2023-04-10T02:14:41;4.50;99.90
63802;DHT22;49949;43.060;25.624;2023-04-10T02:17:08;4.50;99.90
63802;DHT22;49949;43.060;25.624;2023-04-10T02:19:36;4.40;99.90
63802;DHT22;49949;43.060;25.624;2023-04-10T02:22:04;4.40;99.90
63802;DHT22;49949;43.060;25.624;2023-04-10T02:24:31;4.40;99.90
63802;DHT22;49949;43.060;25.624;2023-04-10T02:26:57;4.40;99.90
63802;DHT22;49949;43.060;25.624;2023-04-10T02:29:23;4.40;99.90
63802;DHT22;49949;43.060;25.624;2023-04-10T02:31:49;4.40;99.90
63802;DHT22;49949;43.060;25.624;2023-04-10T02:34:15;4.40;99.90
63802;DHT22;49949;43.060;25.624;2023-04-10T02:36:41;4.40;99.90
63802;DHT22;49949;43.060;25.624;2023-04-10T02:39:06;4.40;99.90
63802;DHT22;49949;43.060;25.624;2023-04-10T02:41:32;4.40;99.90
63802;DHT22;49949;43.060;25.624;2023-04-10T02:43:58;4.40;99.90
63802;DHT22;49949;43.060;25.624;2023-04-10T02:46:24;4.40;99.90
63802;DHT22;49949;43.060;25.624;2023-04-10T02:48:51;4.40;99.90
63802;DHT22;49949;43.060;25.624;2023-04-10T02:51:17;4.30;99.90
63802;DHT22;49949;43.060;25.624;2023-04-10T02:53:43;4.30;99.90
63802;DHT22;49949;43.060;25.624;2023-04-10T02:56:09;4.20;99.90
63802;DHT22;49949;43.060;25.624;2023-04-10T02:58:36;4.20;99.90
63802;DHT22;49949;43.060;25.624;2023-04-10T03:01:04;4.20;99.90
63802;DHT22;49949;43.060;25.624;2023-04-10T03:03:31;4.20;99.90
63802;DHT22;49949;43.060;25.624;2023-04-10T03:05:57;4.20;99.90
63802;DHT22;49949;43.060;25.624;2023-04-10T03:08:23;4.20;99.90
63802;DHT22;49949;43.060;25.624;2023-04-10T03:10:48;4.10;99.90
63802;DHT22;49949;43.060;25.624;2023-04-10T03:13:14;4.10;99.90
63802;DHT22;49949;43.060;25.624;2023-04-10T03:15:40;4.10;99.90
63802;DHT22;49949;43.060;25.624;2023-04-10T03:18:06;4.20;99.90
63802;DHT22;49949;43.060;25.624;2023-04-10T03:20:35;4.20;99.90
63802;DHT22;49949;43.060;25.624;2023-04-10T03:23:01;4.20;99.90
63802;DHT22;49949;43.060;25.624;2023-04-10T03:25:28;4.20;99.90
63802;DHT22;49949;43.060;25.624;2023-04-10T03:27:53;4.20;99.90
63802;DHT22;49949;43.060;25.624;2023-04-10T03:30:20;4.10;99.90
63802;DHT22;49949;43.060;25.624;2023-04-10T03:32:45;4.10;99.90
63802;DHT22;49949;43.060;25.624;2023-04-10T03:35:11;4.10;99.90
63802;DHT22;49949;43.060;25.624;2023-04-10T03:37:37;4.10;99.90
63802;DHT22;49949;43.060;25.624;2023-04-10T03:40:07;4.20;99.90
63802;DHT22;49949;43.060;25.624;2023-04-10T03:42:33;4.10;99.90
63802;DHT22;49949;43.060;25.624;2023-04-10T03:44:59;4.10;99.90
63802;DHT22;49949;43.060;25.624;2023-04-10T03:47:30;4.10;99.90
63802;DHT22;49949;43.060;25.624;2023-04-10T03:49:56;4.10;99.90
63802;DHT22;49949;43.060;25.624;2023-04-10T03:52:23;4.00;99.90
63802;DHT22;49949;43.060;25.624;2023-04-10T03:54:49;4.00;99.90
63802;DHT22;49949;43.060;25.624;2023-04-10T03:57:16;4.00;99.90
63802;DHT22;49949;43.060;25.624;2023-04-10T03:59:43;4.00;99.90
63802;DHT22;49949;43.060;25.624;2023-04-10T04:02:09;4.00;99.90
63802;DHT22;49949;43.060;25.624;2023-04-10T04:04:35;4.00;99.90
63802;DHT22;49949;43.060;25.624;2023-04-10T04:07:01;4.00;99.90
63802;DHT22;49949;43.060;25.624;2023-04-10T04:09:27;4.00;99.90
63802;DHT22;49949;43.060;25.624;2023-04-10T04:11:52;4.00;99.90
63802;DHT22;49949;43.060;25.624;2023-04-10T04:14:18;4.00;99.90
63802;DHT22;49949;43.060;25.624;2023-04-10T04:16:44;4.10;99.90
63802;DHT22;49949;43.060;25.624;2023-04-10T04:19:09;4.10;99.90
63802;DHT22;49949;43.060;25.624;2023-04-10T04:21:35;4.10;99.90
63802;DHT22;49949;43.060;25.624;2023-04-10T04:24:01;4.10;99.90
63802;DHT22;49949;43.060;25.624;2023-04-10T04:26:26;4.20;99.90
63802;DHT22;49949;43.060;25.624;2023-04-10T04:28:52;4.20;99.90
63802;DHT22;49949;43.060;25.624;2023-04-10T04:31:18;4.30;99.90
63802;DHT22;49949;43.060;25.624;2023-04-10T04:33:43;4.60;99.90
63802;DHT22;49949;43.060;25.624;2023-04-10T04:36:09;5.00;99.90
63802;DHT22;49949;43.060;25.624;2023-04-10T04:38:34;5.30;99.90
63802;DHT22;49949;43.060;25.624;2023-04-10T04:41:00;5.50;99.90
63802;DHT22;49949;43.060;25.624;2023-04-10T04:43:26;5.50;99.90
63802;DHT22;49949;43.060;25.624;2023-04-10T04:45:52;5.50;99.90
63802;DHT22;49949;43.060;25.624;2023-04-10T04:48:17;5.60;99.90
63802;DHT22;49949;43.060;25.624;2023-04-10T04:50:43;5.80;99.90
63802;DHT22;49949;43.060;25.624;2023-04-10T04:53:09;6.10;99.90
63802;DHT22;49949;43.060;25.624;2023-04-10T04:55:34;6.50;99.90
63802;DHT22;49949;43.060;25.624;2023-04-10T04:58:00;6.90;99.90
63802;DHT22;49949;43.060;25.624;2023-04-10T05:00:26;7.20;99.90
63802;DHT22;49949;43.060;25.624;2023-04-10T05:02:51;7.30;99.90
63802;DHT22;49949;43.060;25.624;2023-04-10T05:05:17;7.30;99.90
63802;DHT22;49949;43.060;25.624;2023-04-10T05:07:43;7.20;99.90
63802;DHT22;49949;43.060;25.624;2023-04-10T05:10:09;7.40;99.90
63802;DHT22;49949;43.060;25.624;2023-04-10T05:12:34;7.40;99.90
63802;DHT22;49949;43.060;25.624;2023-04-10T05:15:00;7.30;99.90
63802;DHT22;49949;43.060;25.624;2023-04-10T05:17:26;7.20;99.90
63802;DHT22;49949;43.060;25.624;2023-04-10T05:19:52;7.20;99.90
63802;DHT22;49949;43.060;25.624;2023-04-10T05:22:17;7.10;99.90
63802;DHT22;49949;43.060;25.624;2023-04-10T05:24:43;7.00;99.90
63802;DHT22;49949;43.060;25.624;2023-04-10T05:27:09;7.00;99.90
63802;DHT22;49949;43.060;25.624;2023-04-10T05:29:34;7.00;99.90
63802;DHT22;49949;43.060;25.624;2023-04-10T05:32:00;7.00;99.90
63802;DHT22;49949;43.060;25.624;2023-04-10T05:34:26;7.00;99.90
63802;DHT22;49949;43.060;25.624;2023-04-10T05:36:52;7.10;99.90
63802;DHT22;49949;43.060;25.624;2023-04-10T05:39:17;7.20;99.90
63802;DHT22;49949;43.060;25.624;2023-04-10T05:41:43;7.20;99.90
63802;DHT22;49949;43.060;25.624;2023-04-10T05:44:08;7.20;99.90
63802;DHT22;49949;43.060;25.624;2023-04-10T05:46:34;7.20;99.90
63802;DHT22;49949;43.060;25.624;2023-04-10T05:49:00;7.20;99.90
63802;DHT22;49949;43.060;25.624;2023-04-10T05:51:26;7.10;99.90
63802;DHT22;49949;43.060;25.624;2023-04-10T05:53:51;7.30;99.90
63802;DHT22;49949;43.060;25.624;2023-04-10T05:56:17;7.40;99.90
63802;DHT22;49949;43.060;25.624;2023-04-10T05:58:43;7.60;99.90
63802;DHT22;49949;43.060;25.624;2023-04-10T06:01:08;7.80;99.90
63802;DHT22;49949;43.060;25.624;2023-04-10T06:03:35;8.00;99.90
63802;DHT22;49949;43.060;25.624;2023-04-10T06:06:01;8.20;99.90
63802;DHT22;49949;43.060;25.624;2023-04-10T06:08:27;8.40;99.90
63802;DHT22;49949;43.060;25.624;2023-04-10T06:10:53;8.70;99.90
63802;DHT22;49949;43.060;25.624;2023-04-10T06:13:18;9.00;99.90
63802;DHT22;49949;43.060;25.624;2023-04-10T06:15:44;9.20;99.90
63802;DHT22;49949;43.060;25.624;2023-04-10T06:18:10;9.30;99.90
63802;DHT22;49949;43.060;25.624;2023-04-10T06:20:36;9.40;99.90
63802;DHT22;49949;43.060;25.624;2023-04-10T06:23:02;9.60;99.90
63802;DHT22;49949;43.060;25.624;2023-04-10T06:25:27;9.80;99.90
63802;DHT22;49949;43.060;25.624;2023-04-10T06:27:53;10.00;99.90
63802;DHT22;49949;43.060;25.624;2023-04-10T06:30:19;10.10;99.90
63802;DHT22;49949;43.060;25.624;2023-04-10T06:32:45;10.40;99.90
63802;DHT22;49949;43.060;25.624;2023-04-10T06:35:10;10.50;99.90
63802;DHT22;49949;43.060;25.624;2023-04-10T06:37:36;10.70;99.90
63802;DHT22;49949;43.060;25.624;2023-04-10T06:40:09;10.90;99.90
63802;DHT22;49949;43.060;25.624;2023-04-10T06:42:36;11.00;99.90
63802;DHT22;49949;43.060;25.624;2023-04-10T06:45:02;11.20;99.90
63802;DHT22;49949;43.060;25.624;2023-04-10T06:47:29;11.40;99.90
63802;DHT22;49949;43.060;25.624;2023-04-10T06:49:55;11.70;99.90
63802;DHT22;49949;43.060;25.624;2023-04-10T06:52:20;12.00;99.90
63802;DHT22;49949;43.060;25.624;2023-04-10T06:54:46;12.20;99.90
63802;DHT22;49949;43.060;25.624;2023-04-10T06:57:12;12.40;99.90
63802;DHT22;49949;43.060;25.624;2023-04-10T06:59:38;12.40;99.90
63802;DHT22;49949;43.060;25.624;2023-04-10T07:02:03;12.30;99.90
63802;DHT22;49949;43.060;25.624;2023-04-10T07:04:30;12.60;99.90
63802;DHT22;49949;43.060;25.624;2023-04-10T07:06:56;12.80;99.90
63802;DHT22;49949;43.060;25.624;2023-04-10T07:09:24;12.70;99.90
63802;DHT22;49949;43.060;25.624;2023-04-10T07:11:50;12.70;99.90
63802;DHT22;49949;43.060;25.624;2023-04-10T07:14:17;12.90;99.90
63802;DHT22;49949;43.060;25.624;2023-04-10T07:16:42;12.90;99.90
63802;DHT22;49949;43.060;25.624;2023-04-10T07:19:08;12.90;99.90
63802;DHT22;49949;43.060;25.624;2023-04-10T07:21:34;13.00;99.90
63802;DHT22;49949;43.060;25.624;2023-04-10T07:24:00;13.30;99.90
63802;DHT22;49949;43.060;25.624;2023-04-10T07:26:25;13.50;99.90
63802;DHT22;49949;43.060;25.624;2023-04-10T07:28:51;13.70;99.90
63802;DHT22;49949;43.060;25.624;2023-04-10T07:31:17;14.10;99.90
63802;DHT22;49949;43.060;25.624;2023-04-10T07:33:44;14.20;99.90
63802;DHT22;49949;43.060;25.624;2023-04-10T07:36:10;14.20;99.90
63802;DHT22;49949;43.060;25.624;2023-04-10T07:38:35;14.40;99.90
63802;DHT22;49949;43.060;25.624;2023-04-10T07:41:02;14.40;99.90
63802;DHT22;49949;43.060;25.624;2023-04-10T07:43:28;14.70;99.90
63802;DHT22;49949;43.060;25.624;2023-04-10T07:45:54;14.90;98.80
63802;DHT22;49949;43.060;25.624;2023-04-10T07:48:20;14.70;96.90
63802;DHT22;49949;43.060;25.624;2023-04-10T07:50:46;14.70;97.10
63802;DHT22;49949;43.060;25.624;2023-04-10T07:53:12;14.40;92.10
63802;DHT22;49949;43.060;25.624;2023-04-10T07:55:42;14.20;93.70
63802;DHT22;49949;43.060;25.624;2023-04-10T07:58:09;14.30;94.40
63802;DHT22;49949;43.060;25.624;2023-04-10T08:00:35;14.30;92.70
63802;DHT22;49949;43.060;25.624;2023-04-10T08:03:00;14.30;93.40
63802;DHT22;49949;43.060;25.624;2023-04-10T08:05:26;14.00;93.90
63802;DHT22;49949;43.060;25.624;2023-04-10T08:07:52;14.10;92.90
63802;DHT22;49949;43.060;25.624;2023-04-10T08:10:18;14.00;92.40
63802;DHT22;49949;43.060;25.624;2023-04-10T08:12:44;14.00;93.00
63802;DHT22;49949;43.060;25.624;2023-04-10T08:15:10;14.00;91.80
63802;DHT22;49949;43.060;25.624;2023-04-10T08:17:35;14.00;92.20
63802;DHT22;49949;43.060;25.624;2023-04-10T08:20:02;14.00;93.00
63802;DHT22;49949;43.060;25.624;2023-04-10T08:22:27;13.90;92.70
63802;DHT22;49949;43.060;25.624;2023-04-10T08:24:53;13.70;94.10
63802;DHT22;49949;43.060;25.624;2023-04-10T08:27:19;13.80;93.00
63802;DHT22;49949;43.060;25.624;2023-04-10T08:29:44;13.90;94.30
63802;DHT22;49949;43.060;25.624;2023-04-10T08:32:10;14.10;91.70
63802;DHT22;49949;43.060;25.624;2023-04-10T08:34:36;14.30;93.50
63802;DHT22;49949;43.060;25.624;2023-04-10T08:37:05;14.60;91.90
63802;DHT22;49949;43.060;25.624;2023-04-10T08:39:34;15.10;92.40
63802;DHT22;49949;43.060;25.624;2023-04-10T08:42:00;15.40;91.20
63802;DHT22;49949;43.060;25.624;2023-04-10T08:44:26;15.60;88.10
63802;DHT22;49949;43.060;25.624;2023-04-10T08:46:52;16.00;88.70
63802;DHT22;49949;43.060;25.624;2023-04-10T08:49:44;16.20;86.70
63802;DHT22;49949;43.060;25.624;2023-04-10T08:52:20;15.60;87.90
63802;DHT22;49949;43.060;25.624;2023-04-10T08:54:48;15.30;87.90
63802;DHT22;49949;43.060;25.624;2023-04-10T08:57:15;15.30;87.60
63802;DHT22;49949;43.060;25.624;2023-04-10T08:59:49;15.50;87.30
63802;DHT22;49949;43.060;25.624;2023-04-10T09:02:19;15.70;87.40
63802;DHT22;49949;43.060;25.624;2023-04-10T09:04:49;15.80;85.50
63802;DHT22;49949;43.060;25.624;2023-04-10T09:07:16;15.50;86.30
63802;DHT22;49949;43.060;25.624;2023-04-10T09:09:42;15.80;85.30
63802;DHT22;49949;43.060;25.624;2023-04-10T09:12:07;16.20;85.50
63802;DHT22;49949;43.060;25.624;2023-04-10T09:14:34;16.10;83.00
63802;DHT22;49949;43.060;25.624;2023-04-10T09:19:40;15.80;84.20
63802;DHT22;49949;43.060;25.624;2023-04-10T09:22:05;15.90;82.70
63802;DHT22;49949;43.060;25.624;2023-04-10T09:24:35;15.80;84.60
63802;DHT22;49949;43.060;25.624;2023-04-10T09:27:01;15.20;85.10
63802;DHT22;49949;43.060;25.624;2023-04-10T09:29:44;15.10;87.80
63802;DHT22;49949;43.060;25.624;2023-04-10T09:32:11;15.40;86.20
63802;DHT22;49949;43.060;25.624;2023-04-10T09:34:55;15.70;86.40
63802;DHT22;49949;43.060;25.624;2023-04-10T09:37:33;15.60;84.80
63802;DHT22;49949;43.060;25.624;2023-04-10T09:40:00;15.40;84.20
63802;DHT22;49949;43.060;25.624;2023-04-10T09:42:33;15.50;83.70
63802;DHT22;49949;43.060;25.624;2023-04-10T09:45:00;15.50;84.60
63802;DHT22;49949;43.060;25.624;2023-04-10T09:47:26;15.10;86.60
63802;DHT22;49949;43.060;25.624;2023-04-10T09:49:57;15.10;86.70
63802;DHT22;49949;43.060;25.624;2023-04-10T09:52:27;15.10;86.70
63802;DHT22;49949;43.060;25.624;2023-04-10T09:54:57;15.30;88.90
63802;DHT22;49949;43.060;25.624;2023-04-10T09:57:25;15.50;86.40
63802;DHT22;49949;43.060;25.624;2023-04-10T09:59:53;15.30;88.30
63802;DHT22;49949;43.060;25.624;2023-04-10T10:02:21;15.30;87.40
63802;DHT22;49949;43.060;25.624;2023-04-10T10:04:47;15.20;86.90
63802;DHT22;49949;43.060;25.624;2023-04-10T10:07:15;14.90;87.90
63802;DHT22;49949;43.060;25.624;2023-04-10T10:09:42;14.80;88.60
63802;DHT22;49949;43.060;25.624;2023-04-10T10:12:10;14.90;88.90
63802;DHT22;49949;43.060;25.624;2023-04-10T10:14:45;15.10;88.10
63802;DHT22;49949;43.060;25.624;2023-04-10T10:17:14;15.30;86.90
63802;DHT22;49949;43.060;25.624;2023-04-10T10:19:56;15.20;84.60
63802;DHT22;49949;43.060;25.624;2023-04-10T10:22:25;15.30;86.50
63802;DHT22;49949;43.060;25.624;2023-04-10T10:24:53;15.40;84.10
63802;DHT22;49949;43.060;25.624;2023-04-10T10:27:22;15.50;84.30
63802;DHT22;49949;43.060;25.624;2023-04-10T10:29:49;15.60;84.10
63802;DHT22;49949;43.060;25.624;2023-04-10T10:32:16;15.60;84.80
63802;DHT22;49949;43.060;25.624;2023-04-10T10:34:43;15.40;85.10
63802;DHT22;49949;43.060;25.624;2023-04-10T10:37:11;15.40;85.50
63802;DHT22;49949;43.060;25.624;2023-04-10T10:40:00;15.50;85.40
63802;DHT22;49949;43.060;25.624;2023-04-10T10:43:10;15.50;83.20
63802;DHT22;49949;43.060;25.624;2023-04-10T10:48:30;15.60;84.80
63802;DHT22;49949;43.060;25.624;2023-04-10T10:50:57;15.50;85.10
63802;DHT22;49949;43.060;25.624;2023-04-10T10:53:44;15.50;85.10
63802;DHT22;49949;43.060;25.624;2023-04-10T10:56:35;15.40;84.90
63802;DHT22;49949;43.060;25.624;2023-04-10T10:59:01;15.30;85.70
63802;DHT22;49949;43.060;25.624;2023-04-10T11:01:27;15.50;87.20
63802;DHT22;49949;43.060;25.624;2023-04-10T11:03:53;15.50;84.90
63802;DHT22;49949;43.060;25.624;2023-04-10T11:06:49;15.40;85.70
63802;DHT22;49949;43.060;25.624;2023-04-10T11:09:50;15.20;86.00
63802;DHT22;49949;43.060;25.624;2023-04-10T11:12:18;15.00;86.50
63802;DHT22;49949;43.060;25.624;2023-04-10T11:15:03;15.00;88.20
63802;DHT22;49949;43.060;25.624;2023-04-10T11:17:47;15.00;87.30
63802;DHT22;49949;43.060;25.624;2023-04-10T11:20:14;14.90;86.50
63802;DHT22;49949;43.060;25.624;2023-04-10T11:23:08;14.80;86.70
63802;DHT22;49949;43.060;25.624;2023-04-10T11:25:53;14.70;86.50
63802;DHT22;49949;43.060;25.624;2023-04-10T11:28:49;14.80;86.30
63802;DHT22;49949;43.060;25.624;2023-04-10T11:31:22;14.80;86.30
63802;DHT22;49949;43.060;25.624;2023-04-10T11:33:52;15.00;87.60
63802;DHT22;49949;43.060;25.624;2023-04-10T11:36:25;15.00;86.90
63802;DHT22;49949;43.060;25.624;2023-04-10T11:39:01;14.70;85.80
63802;DHT22;49949;43.060;25.624;2023-04-10T11:41:30;14.70;84.80
63802;DHT22;49949;43.060;25.624;2023-04-10T11:44:02;14.70;84.80
63802;DHT22;49949;43.060;25.624;2023-04-10T11:46:28;14.90;85.00
63802;DHT22;49949;43.060;25.624;2023-04-10T11:48:57;15.00;82.40
63802;DHT22;49949;43.060;25.624;2023-04-10T11:51:23;15.20;82.90
63802;DHT22;49949;43.060;25.624;2023-04-10T11:53:48;15.40;81.20
63802;DHT22;49949;43.060;25.624;2023-04-10T11:56:18;15.60;82.70
63802;DHT22;49949;43.060;25.624;2023-04-10T11:58:48;15.90;79.70
63802;DHT22;49949;43.060;25.624;2023-04-10T12:01:14;16.00;76.50
63802;DHT22;49949;43.060;25.624;2023-04-10T12:03:43;15.90;75.70
63802;DHT22;49949;43.060;25.624;2023-04-10T12:06:13;15.90;74.50
63802;DHT22;49949;43.060;25.624;2023-04-10T12:08:44;15.60;75.90
63802;DHT22;49949;43.060;25.624;2023-04-10T12:11:11;15.80;77.70
63802;DHT22;49949;43.060;25.624;2023-04-10T12:13:37;16.00;77.40
63802;DHT22;49949;43.060;25.624;2023-04-10T12:16:07;15.90;76.40
63802;DHT22;49949;43.060;25.624;2023-04-10T12:18:34;15.70;78.40
63802;DHT22;49949;43.060;25.624;2023-04-10T12:21:00;15.60;79.10
63802;DHT22;49949;43.060;25.624;2023-04-10T12:23:28;15.50;78.80
63802;DHT22;49949;43.060;25.624;2023-04-10T12:26:06;15.60;80.00
63802;DHT22;49949;43.060;25.624;2023-04-10T12:28:36;15.70;80.50
63802;DHT22;49949;43.060;25.624;2023-04-10T12:31:02;15.50;80.90
63802;DHT22;49949;43.060;25.624;2023-04-10T12:33:28;15.50;82.00
63802;DHT22;49949;43.060;25.624;2023-04-10T12:35:53;15.60;82.70
63802;DHT22;49949;43.060;25.624;2023-04-10T12:38:38;15.90;82.80
63802;DHT22;49949;43.060;25.624;2023-04-10T12:41:05;16.00;82.30
63802;DHT22;49949;43.060;25.624;2023-04-10T12:43:41;15.90;82.30
63802;DHT22;49949;43.060;25.624;2023-04-10T12:46:09;15.80;81.80
63802;DHT22;49949;43.060;25.624;2023-04-10T12:48:46;15.80;82.60
63802;DHT22;49949;43.060;25.624;2023-04-10T12:51:12;15.80;83.70
63802;DHT22;49949;43.060;25.624;2023-04-10T12:53:46;15.90;84.60
63802;DHT22;49949;43.060;25.624;2023-04-10T12:56:12;15.90;84.00
63802;DHT22;49949;43.060;25.624;2023-04-10T12:58:39;16.00;82.90
63802;DHT22;49949;43.060;25.624;2023-04-10T13:01:07;16.00;81.90
63802;DHT22;49949;43.060;25.624;2023-04-10T13:03:34;15.90;83.90
63802;DHT22;49949;43.060;25.624;2023-04-10T13:06:03;15.90;82.80
63802;DHT22;49949;43.060;25.624;2023-04-10T13:08:29;16.00;81.30
63802;DHT22;49949;43.060;25.624;2023-04-10T13:10:57;16.00;82.90
63802;DHT22;49949;43.060;25.624;2023-04-10T13:13:27;16.10;82.70
63802;DHT22;49949;43.060;25.624;2023-04-10T13:15:54;16.20;82.70
63802;DHT22;49949;43.060;25.624;2023-04-10T13:18:20;16.10;81.10
63802;DHT22;49949;43.060;25.624;2023-04-10T13:20:45;16.20;83.40
63802;DHT22;49949;43.060;25.624;2023-04-10T13:23:11;16.30;83.00
63802;DHT22;49949;43.060;25.624;2023-04-10T13:25:38;16.40;82.90
63802;DHT22;49949;43.060;25.624;2023-04-10T13:28:05;16.40;81.80
63802;DHT22;49949;43.060;25.624;2023-04-10T13:30:39;16.40;82.40
63802;DHT22;49949;43.060;25.624;2023-04-10T13:33:05;16.40;79.50
63802;DHT22;49949;43.060;25.624;2023-04-10T13:35:31;16.20;79.90
63802;DHT22;49949;43.060;25.624;2023-04-10T13:37:57;16.20;79.50
63802;DHT22;49949;43.060;25.624;2023-04-10T13:40:22;16.10;79.00
63802;DHT22;49949;43.060;25.624;2023-04-10T13:42:48;15.90;80.50
63802;DHT22;49949;43.060;25.624;2023-04-10T13:45:14;15.70;80.80
63802;DHT22;49949;43.060;25.624;2023-04-10T13:47:40;15.30;82.10
63802;DHT22;49949;43.060;25.624;2023-04-10T13:50:06;15.30;82.70
63802;DHT22;49949;43.060;25.624;2023-04-10T13:52:32;14.80;91.90
63802;DHT22;49949;43.060;25.624;2023-04-10T13:54:58;14.30;96.50
63802;DHT22;49949;43.060;25.624;2023-04-10T13:57:23;13.80;99.90
63802;DHT22;49949;43.060;25.624;2023-04-10T13:59:49;13.40;99.90
63802;DHT22;49949;43.060;25.624;2023-04-10T14:02:15;13.10;99.90
63802;DHT22;49949;43.060;25.624;2023-04-10T14:04:41;13.00;99.90
63802;DHT22;49949;43.060;25.624;2023-04-10T14:07:08;13.00;99.90
63802;DHT22;49949;43.060;25.624;2023-04-10T14:09:34;13.00;99.90
63802;DHT22;49949;43.060;25.624;2023-04-10T14:11:59;13.00;99.90
63802;DHT22;49949;43.060;25.624;2023-04-10T14:14:27;13.00;99.90
63802;DHT22;49949;43.060;25.624;2023-04-10T14:16:53;13.10;99.90
63802;DHT22;49949;43.060;25.624;2023-04-10T14:19:18;13.10;99.90
63802;DHT22;49949;43.060;25.624;2023-04-10T14:21:44;13.20;99.90
63802;DHT22;49949;43.060;25.624;2023-04-10T14:24:10;13.20;99.90
63802;DHT22;49949;43.060;25.624;2023-04-10T14:26:36;13.30;99.90
63802;DHT22;49949;43.060;25.624;2023-04-10T14:29:02;13.50;99.90
63802;DHT22;49949;43.060;25.624;2023-04-10T14:31:28;13.60;99.90
63802;DHT22;49949;43.060;25.624;2023-04-10T14:33:53;13.60;99.90
63802;DHT22;49949;43.060;25.624;2023-04-10T14:36:19;13.60;99.90
63802;DHT22;49949;43.060;25.624;2023-04-10T14:38:45;13.60;99.90
63802;DHT22;49949;43.060;25.624;2023-04-10T14:41:11;13.60;99.90
63802;DHT22;49949;43.060;25.624;2023-04-10T14:43:37;13.60;99.90
63802;DHT22;49949;43.060;25.624;2023-04-10T14:46:02;13.40;99.90
63802;DHT22;49949;43.060;25.624;2023-04-10T14:48:28;13.30;99.90
63802;DHT22;49949;43.060;25.624;2023-04-10T14:50:54;13.10;99.90
63802;DHT22;49949;43.060;25.624;2023-04-10T14:53:21;13.00;99.90
63802;DHT22;49949;43.060;25.624;2023-04-10T14:55:47;12.90;99.90
63802;DHT22;49949;43.060;25.624;2023-04-10T14:58:13;12.90;99.90
63802;DHT22;49949;43.060;25.624;2023-04-10T15:00:39;12.90;99.90
63802;DHT22;49949;43.060;25.624;2023-04-10T15:03:05;12.90;99.90
63802;DHT22;49949;43.060;25.624;2023-04-10T15:05:32;13.00;99.90
63802;DHT22;49949;43.060;25.624;2023-04-10T15:07:58;13.00;99.90
63802;DHT22;49949;43.060;25.624;2023-04-10T15:10:24;13.00;99.90
63802;DHT22;49949;43.060;25.624;2023-04-10T15:12:50;13.10;99.90
63802;DHT22;49949;43.060;25.624;2023-04-10T15:15:16;13.10;99.90
63802;DHT22;49949;43.060;25.624;2023-04-10T15:17:43;13.10;99.90
63802;DHT22;49949;43.060;25.624;2023-04-10T15:20:09;13.20;99.90
63802;DHT22;49949;43.060;25.624;2023-04-10T15:22:35;13.20;99.90
63802;DHT22;49949;43.060;25.624;2023-04-10T15:25:01;13.20;99.90
63802;DHT22;49949;43.060;25.624;2023-04-10T15:27:26;13.20;99.90
63802;DHT22;49949;43.060;25.624;2023-04-10T15:29:52;13.20;99.90
63802;DHT22;49949;43.060;25.624;2023-04-10T15:32:18;13.10;99.90
63802;DHT22;49949;43.060;25.624;2023-04-10T15:34:44;13.10;99.90
63802;DHT22;49949;43.060;25.624;2023-04-10T15:37:09;13.10;99.90
63802;DHT22;49949;43.060;25.624;2023-04-10T15:39:36;13.10;99.90